sensor_id;sensor_type;location;lat;lon;timestamp;P1;durP1;ratioP1;P2;durP2;ratioP2
83326;SDS011;73250;55.594;13.020;2024-03-22T00:01:45;11.25;;;9.55;;
83326;SDS011;73250;55.594;13.020;2024-03-22T00:04:12;9.63;;;8.63;;
83326;SDS011;73250;55.594;13.020;2024-03-22T00:06:38;12.25;;;8.98;;
83326;SDS011;73250;55.594;13.020;2024-03-22T00:09:05;10.30;;;8.07;;
83326;SDS011;73250;55.594;13.020;2024-03-22T00:11:31;9.38;;;8.25;;
83326;SDS011;73250;55.594;13.020;2024-03-22T00:13:57;8.50;;;7.65;;
83326;SDS011;73250;55.594;13.020;2024-03-22T00:16:24;10.75;;;8.68;;
83326;SDS011;73250;55.594;13.020;2024-03-22T00:18:51;9.18;;;7.95;;
83326;SDS011;73250;55.594;13.020;2024-03-22T00:21:17;9.20;;;7.03;;
83326;SDS011;73250;55.594;13.020;2024-03-22T00:23:44;9.85;;;7.57;;
83326;SDS011;73250;55.594;13.020;2024-03-22T00:26:10;7.80;;;7.05;;
83326;SDS011;73250;55.594;13.020;2024-03-22T00:28:37;7.57;;;6.88;;
83326;SDS011;73250;55.594;13.020;2024-03-22T00:31:04;9.02;;;6.82;;
83326;SDS011;73250;55.594;13.020;2024-03-22T00:33:32;9.00;;;7.00;;
83326;SDS011;73250;55.594;13.020;2024-03-22T00:35:57;9.13;;;7.10;;
83326;SDS011;73250;55.594;13.020;2024-03-22T00:38:24;7.93;;;6.72;;
83326;SDS011;73250;55.594;13.020;2024-03-22T00:40:50;8.45;;;6.88;;
83326;SDS011;73250;55.594;13.020;2024-03-22T00:43:16;8.20;;;6.63;;
83326;SDS011;73250;55.594;13.020;2024-03-22T00:45:42;8.75;;;7.00;;
83326;SDS011;73250;55.594;13.020;2024-03-22T00:48:09;6.85;;;5.93;;
83326;SDS011;73250;55.594;13.020;2024-03-22T00:50:36;7.00;;;5.75;;
83326;SDS011;73250;55.594;13.020;2024-03-22T00:53:02;7.78;;;6.18;;
83326;SDS011;73250;55.594;13.020;2024-03-22T00:55:30;7.65;;;6.03;;
83326;SDS011;73250;55.594;13.020;2024-03-22T00:57:57;7.75;;;6.20;;
83326;SDS011;73250;55.594;13.020;2024-03-22T01:00:22;6.85;;;5.82;;
83326;SDS011;73250;55.594;13.020;2024-03-22T01:02:50;7.93;;;5.88;;
83326;SDS011;73250;55.594;13.020;2024-03-22T01:05:16;6.68;;;5.50;;
83326;SDS011;73250;55.594;13.020;2024-03-22T01:07:44;8.45;;;6.20;;
83326;SDS011;73250;55.594;13.020;2024-03-22T01:10:12;6.72;;;5.68;;
83326;SDS011;73250;55.594;13.020;2024-03-22T01:12:39;7.43;;;5.60;;
83326;SDS011;73250;55.594;13.020;2024-03-22T01:15:05;7.60;;;5.93;;
83326;SDS011;73250;55.594;13.020;2024-03-22T01:17:33;7.03;;;5.40;;
83326;SDS011;73250;55.594;13.020;2024-03-22T01:19:58;7.00;;;5.45;;
83326;SDS011;73250;55.594;13.020;2024-03-22T01:22:25;8.05;;;5.18;;
83326;SDS011;73250;55.594;13.020;2024-03-22T01:24:52;6.25;;;5.20;;
83326;SDS011;73250;55.594;13.020;2024-03-22T01:27:19;7.88;;;5.70;;
83326;SDS011;73250;55.594;13.020;2024-03-22T01:29:45;5.80;;;4.80;;
83326;SDS011;73250;55.594;13.020;2024-03-22T01:32:12;6.47;;;4.70;;
83326;SDS011;73250;55.594;13.020;2024-03-22T01:34:38;6.07;;;5.03;;
83326;SDS011;73250;55.594;13.020;2024-03-22T01:37:04;7.20;;;5.78;;
83326;SDS011;73250;55.594;13.020;2024-03-22T01:39:31;8.07;;;5.03;;
83326;SDS011;73250;55.594;13.020;2024-03-22T01:41:59;6.78;;;5.28;;
83326;SDS011;73250;55.594;13.020;2024-03-22T01:44:27;7.97;;;5.40;;
83326;SDS011;73250;55.594;13.020;2024-03-22T01:46:54;5.85;;;4.22;;
83326;SDS011;73250;55.594;13.020;2024-03-22T01:49:20;5.82;;;4.57;;
83326;SDS011;73250;55.594;13.020;2024-03-22T01:51:47;7.75;;;5.18;;
83326;SDS011;73250;55.594;13.020;2024-03-22T01:54:13;6.93;;;4.90;;
83326;SDS011;73250;55.594;13.020;2024-03-22T01:56:42;6.68;;;4.80;;
83326;SDS011;73250;55.594;13.020;2024-03-22T01:59:09;6.55;;;4.90;;
83326;SDS011;73250;55.594;13.020;2024-03-22T02:01:36;6.07;;;4.78;;
83326;SDS011;73250;55.594;13.020;2024-03-22T02:04:02;6.70;;;4.78;;
83326;SDS011;73250;55.594;13.020;2024-03-22T02:06:28;6.40;;;4.95;;
83326;SDS011;73250;55.594;13.020;2024-03-22T02:08:54;6.38;;;4.60;;
83326;SDS011;73250;55.594;13.020;2024-03-22T02:11:22;6.20;;;4.85;;
83326;SDS011;73250;55.594;13.020;2024-03-22T02:13:48;7.10;;;5.20;;
83326;SDS011;73250;55.594;13.020;2024-03-22T02:16:16;5.85;;;4.70;;
83326;SDS011;73250;55.594;13.020;2024-03-22T02:18:42;5.72;;;4.90;;
83326;SDS011;73250;55.594;13.020;2024-03-22T02:21:09;5.45;;;4.50;;
83326;SDS011;73250;55.594;13.020;2024-03-22T02:23:36;5.43;;;4.40;;
83326;SDS011;73250;55.594;13.020;2024-03-22T02:26:04;5.63;;;4.88;;
83326;SDS011;73250;55.594;13.020;2024-03-22T02:28:31;6.72;;;5.07;;
83326;SDS011;73250;55.594;13.020;2024-03-22T02:30:59;7.60;;;5.40;;
83326;SDS011;73250;55.594;13.020;2024-03-22T02:33:25;5.88;;;4.70;;
83326;SDS011;73250;55.594;13.020;2024-03-22T02:35:52;6.68;;;5.00;;
83326;SDS011;73250;55.594;13.020;2024-03-22T02:38:18;5.57;;;4.63;;
83326;SDS011;73250;55.594;13.020;2024-03-22T02:40:46;6.50;;;4.47;;
83326;SDS011;73250;55.594;13.020;2024-03-22T02:43:12;6.72;;;4.18;;
83326;SDS011;73250;55.594;13.020;2024-03-22T02:45:39;8.00;;;5.00;;
83326;SDS011;73250;55.594;13.020;2024-03-22T02:48:05;7.75;;;5.20;;
83326;SDS011;73250;55.594;13.020;2024-03-22T02:50:32;6.35;;;5.00;;
83326;SDS011;73250;55.594;13.020;2024-03-22T02:52:58;6.95;;;5.38;;
83326;SDS011;73250;55.594;13.020;2024-03-22T02:55:25;5.72;;;5.00;;
83326;SDS011;73250;55.594;13.020;2024-03-22T02:57:52;6.45;;;4.80;;
83326;SDS011;73250;55.594;13.020;2024-03-22T03:00:18;8.43;;;5.15;;
83326;SDS011;73250;55.594;13.020;2024-03-22T03:02:45;7.07;;;5.30;;
83326;SDS011;73250;55.594;13.020;2024-03-22T03:05:11;6.35;;;5.07;;
83326;SDS011;73250;55.594;13.020;2024-03-22T03:07:37;7.10;;;5.10;;
83326;SDS011;73250;55.594;13.020;2024-03-22T03:10:04;6.95;;;5.10;;
83326;SDS011;73250;55.594;13.020;2024-03-22T03:12:30;6.57;;;5.10;;
83326;SDS011;73250;55.594;13.020;2024-03-22T03:14:58;6.57;;;4.88;;
83326;SDS011;73250;55.594;13.020;2024-03-22T03:17:24;7.55;;;5.45;;
83326;SDS011;73250;55.594;13.020;2024-03-22T03:19:51;6.28;;;4.78;;
83326;SDS011;73250;55.594;13.020;2024-03-22T03:22:17;7.45;;;5.20;;
83326;SDS011;73250;55.594;13.020;2024-03-22T03:24:43;6.93;;;4.55;;
83326;SDS011;73250;55.594;13.020;2024-03-22T03:27:09;6.50;;;4.75;;
83326;SDS011;73250;55.594;13.020;2024-03-22T03:29:36;7.10;;;5.45;;
83326;SDS011;73250;55.594;13.020;2024-03-22T03:32:03;6.38;;;4.72;;
83326;SDS011;73250;55.594;13.020;2024-03-22T03:34:30;6.00;;;4.90;;
83326;SDS011;73250;55.594;13.020;2024-03-22T03:36:56;7.43;;;4.95;;
83326;SDS011;73250;55.594;13.020;2024-03-22T03:39:25;7.45;;;5.07;;
83326;SDS011;73250;55.594;13.020;2024-03-22T03:41:51;6.68;;;4.82;;
83326;SDS011;73250;55.594;13.020;2024-03-22T03:44:18;6.75;;;4.70;;
83326;SDS011;73250;55.594;13.020;2024-03-22T03:46:43;7.07;;;4.68;;
83326;SDS011;73250;55.594;13.020;2024-03-22T03:49:11;5.40;;;4.70;;
83326;SDS011;73250;55.594;13.020;2024-03-22T03:51:37;5.60;;;4.93;;
83326;SDS011;73250;55.594;13.020;2024-03-22T03:54:04;6.60;;;5.40;;
83326;SDS011;73250;55.594;13.020;2024-03-22T03:56:29;6.93;;;5.57;;
83326;SDS011;73250;55.594;13.020;2024-03-22T03:58:56;6.20;;;5.15;;
83326;SDS011;73250;55.594;13.020;2024-03-22T04:01:22;5.60;;;5.05;;
83326;SDS011;73250;55.594;13.020;2024-03-22T04:03:49;5.40;;;4.63;;
83326;SDS011;73250;55.594;13.020;2024-03-22T04:06:16;8.02;;;5.60;;
83326;SDS011;73250;55.594;13.020;2024-03-22T04:08:42;7.00;;;5.20;;
83326;SDS011;73250;55.594;13.020;2024-03-22T04:11:08;6.93;;;5.30;;
83326;SDS011;73250;55.594;13.020;2024-03-22T04:13:36;6.60;;;5.10;;
83326;SDS011;73250;55.594;13.020;2024-03-22T04:16:02;6.13;;;4.82;;
83326;SDS011;73250;55.594;13.020;2024-03-22T04:18:30;6.55;;;5.00;;
83326;SDS011;73250;55.594;13.020;2024-03-22T04:20:56;5.53;;;4.90;;
83326;SDS011;73250;55.594;13.020;2024-03-22T04:23:24;7.82;;;4.88;;
83326;SDS011;73250;55.594;13.020;2024-03-22T04:25:51;6.32;;;5.15;;
83326;SDS011;73250;55.594;13.020;2024-03-22T04:28:19;6.03;;;4.95;;
83326;SDS011;73250;55.594;13.020;2024-03-22T04:30:53;5.10;;;4.25;;
83326;SDS011;73250;55.594;13.020;2024-03-22T04:33:21;7.25;;;4.47;;
83326;SDS011;73250;55.594;13.020;2024-03-22T04:35:47;6.60;;;5.22;;
83326;SDS011;73250;55.594;13.020;2024-03-22T04:38:13;8.05;;;5.43;;
83326;SDS011;73250;55.594;13.020;2024-03-22T04:40:41;6.80;;;4.60;;
83326;SDS011;73250;55.594;13.020;2024-03-22T04:43:08;7.20;;;4.95;;
83326;SDS011;73250;55.594;13.020;2024-03-22T04:45:34;6.15;;;4.88;;
83326;SDS011;73250;55.594;13.020;2024-03-22T04:48:01;5.18;;;4.47;;
83326;SDS011;73250;55.594;13.020;2024-03-22T04:50:27;5.90;;;4.85;;
83326;SDS011;73250;55.594;13.020;2024-03-22T04:52:54;6.40;;;5.13;;
83326;SDS011;73250;55.594;13.020;2024-03-22T04:55:20;6.70;;;4.90;;
83326;SDS011;73250;55.594;13.020;2024-03-22T04:57:48;6.35;;;4.55;;
83326;SDS011;73250;55.594;13.020;2024-03-22T05:00:14;7.70;;;4.88;;
83326;SDS011;73250;55.594;13.020;2024-03-22T05:02:41;6.05;;;4.80;;
83326;SDS011;73250;55.594;13.020;2024-03-22T05:05:07;6.63;;;5.35;;
83326;SDS011;73250;55.594;13.020;2024-03-22T05:07:34;5.60;;;4.97;;
83326;SDS011;73250;55.594;13.020;2024-03-22T05:10:00;5.55;;;4.15;;
83326;SDS011;73250;55.594;13.020;2024-03-22T05:12:28;5.65;;;4.97;;
83326;SDS011;73250;55.594;13.020;2024-03-22T05:14:55;5.43;;;4.75;;
83326;SDS011;73250;55.594;13.020;2024-03-22T05:17:22;5.70;;;5.10;;
83326;SDS011;73250;55.594;13.020;2024-03-22T05:19:48;5.95;;;4.60;;
83326;SDS011;73250;55.594;13.020;2024-03-22T05:22:15;7.28;;;5.30;;
83326;SDS011;73250;55.594;13.020;2024-03-22T05:24:40;6.57;;;5.07;;
83326;SDS011;73250;55.594;13.020;2024-03-22T05:27:07;5.55;;;4.63;;
83326;SDS011;73250;55.594;13.020;2024-03-22T05:29:33;5.68;;;5.07;;
83326;SDS011;73250;55.594;13.020;2024-03-22T05:32:01;7.57;;;5.28;;
83326;SDS011;73250;55.594;13.020;2024-03-22T05:34:28;6.63;;;5.10;;
83326;SDS011;73250;55.594;13.020;2024-03-22T05:36:55;6.05;;;4.90;;
83326;SDS011;73250;55.594;13.020;2024-03-22T05:39:21;5.82;;;4.95;;
83326;SDS011;73250;55.594;13.020;2024-03-22T05:41:47;5.85;;;4.75;;
83326;SDS011;73250;55.594;13.020;2024-03-22T05:44:13;6.65;;;4.97;;
83326;SDS011;73250;55.594;13.020;2024-03-22T05:46:40;5.88;;;4.70;;
83326;SDS011;73250;55.594;13.020;2024-03-22T05:49:07;7.10;;;5.15;;
83326;SDS011;73250;55.594;13.020;2024-03-22T05:51:33;6.50;;;5.40;;
83326;SDS011;73250;55.594;13.020;2024-03-22T05:53:59;6.75;;;4.72;;
83326;SDS011;73250;55.594;13.020;2024-03-22T05:56:26;5.15;;;4.50;;
83326;SDS011;73250;55.594;13.020;2024-03-22T05:58:51;5.95;;;5.25;;
83326;SDS011;73250;55.594;13.020;2024-03-22T06:01:18;7.55;;;5.28;;
83326;SDS011;73250;55.594;13.020;2024-03-22T06:03:44;5.18;;;4.65;;
83326;SDS011;73250;55.594;13.020;2024-03-22T06:06:12;5.35;;;4.57;;
83326;SDS011;73250;55.594;13.020;2024-03-22T06:08:38;7.22;;;5.47;;
83326;SDS011;73250;55.594;13.020;2024-03-22T06:11:07;5.07;;;4.57;;
83326;SDS011;73250;55.594;13.020;2024-03-22T06:13:33;6.30;;;5.00;;
83326;SDS011;73250;55.594;13.020;2024-03-22T06:16:00;6.53;;;5.28;;
83326;SDS011;73250;55.594;13.020;2024-03-22T06:18:25;6.72;;;4.97;;
83326;SDS011;73250;55.594;13.020;2024-03-22T06:20:52;7.00;;;5.07;;
83326;SDS011;73250;55.594;13.020;2024-03-22T06:23:21;7.63;;;5.18;;
83326;SDS011;73250;55.594;13.020;2024-03-22T06:25:51;6.93;;;4.82;;
83326;SDS011;73250;55.594;13.020;2024-03-22T06:28:17;6.13;;;5.30;;
83326;SDS011;73250;55.594;13.020;2024-03-22T06:30:43;6.80;;;5.13;;
83326;SDS011;73250;55.594;13.020;2024-03-22T06:33:09;6.88;;;5.32;;
83326;SDS011;73250;55.594;13.020;2024-03-22T06:35:36;7.40;;;4.85;;
83326;SDS011;73250;55.594;13.020;2024-03-22T06:38:01;5.88;;;5.20;;
83326;SDS011;73250;55.594;13.020;2024-03-22T06:40:30;6.68;;;5.00;;
83326;SDS011;73250;55.594;13.020;2024-03-22T06:42:56;6.97;;;5.65;;
83326;SDS011;73250;55.594;13.020;2024-03-22T06:45:23;6.72;;;4.78;;
83326;SDS011;73250;55.594;13.020;2024-03-22T06:47:49;8.50;;;5.95;;
83326;SDS011;73250;55.594;13.020;2024-03-22T06:50:16;5.95;;;5.25;;
83326;SDS011;73250;55.594;13.020;2024-03-22T06:52:42;8.10;;;5.85;;
83326;SDS011;73250;55.594;13.020;2024-03-22T06:55:09;7.38;;;5.32;;
83326;SDS011;73250;55.594;13.020;2024-03-22T06:57:36;5.65;;;4.95;;
83326;SDS011;73250;55.594;13.020;2024-03-22T07:00:03;6.53;;;5.32;;
83326;SDS011;73250;55.594;13.020;2024-03-22T07:02:30;6.70;;;5.63;;
83326;SDS011;73250;55.594;13.020;2024-03-22T07:04:56;6.10;;;5.15;;
83326;SDS011;73250;55.594;13.020;2024-03-22T07:07:22;7.53;;;5.47;;
83326;SDS011;73250;55.594;13.020;2024-03-22T07:09:49;8.15;;;6.20;;
83326;SDS011;73250;55.594;13.020;2024-03-22T07:12:15;6.32;;;5.30;;
83326;SDS011;73250;55.594;13.020;2024-03-22T07:14:43;6.03;;;5.32;;
83326;SDS011;73250;55.594;13.020;2024-03-22T07:17:09;7.68;;;5.93;;
83326;SDS011;73250;55.594;13.020;2024-03-22T07:19:35;8.02;;;5.95;;
83326;SDS011;73250;55.594;13.020;2024-03-22T07:22:02;6.55;;;5.85;;
83326;SDS011;73250;55.594;13.020;2024-03-22T07:24:28;6.55;;;5.10;;
83326;SDS011;73250;55.594;13.020;2024-03-22T07:26:54;6.35;;;4.90;;
83326;SDS011;73250;55.594;13.020;2024-03-22T07:29:20;7.05;;;5.72;;
83326;SDS011;73250;55.594;13.020;2024-03-22T07:31:48;6.60;;;5.57;;
83326;SDS011;73250;55.594;13.020;2024-03-22T07:34:14;6.90;;;5.40;;
83326;SDS011;73250;55.594;13.020;2024-03-22T07:36:41;7.32;;;5.25;;
83326;SDS011;73250;55.594;13.020;2024-03-22T07:39:06;6.88;;;5.00;;
83326;SDS011;73250;55.594;13.020;2024-03-22T07:41:33;6.32;;;5.53;;
83326;SDS011;73250;55.594;13.020;2024-03-22T07:43:59;6.07;;;5.10;;
83326;SDS011;73250;55.594;13.020;2024-03-22T07:46:26;7.20;;;5.93;;
83326;SDS011;73250;55.594;13.020;2024-03-22T07:48:53;6.22;;;5.15;;
83326;SDS011;73250;55.594;13.020;2024-03-22T07:51:20;9.25;;;5.88;;
83326;SDS011;73250;55.594;13.020;2024-03-22T07:53:46;7.47;;;6.07;;
83326;SDS011;73250;55.594;13.020;2024-03-22T07:56:12;5.63;;;5.10;;
83326;SDS011;73250;55.594;13.020;2024-03-22T07:58:38;6.60;;;4.53;;
83326;SDS011;73250;55.594;13.020;2024-03-22T08:01:05;7.10;;;6.10;;
83326;SDS011;73250;55.594;13.020;2024-03-22T08:03:31;12.25;;;9.75;;
83326;SDS011;73250;55.594;13.020;2024-03-22T08:05:59;11.52;;;8.93;;
83326;SDS011;73250;55.594;13.020;2024-03-22T08:08:25;19.55;;;16.38;;
83326;SDS011;73250;55.594;13.020;2024-03-22T08:10:51;18.17;;;13.57;;
83326;SDS011;73250;55.594;13.020;2024-03-22T08:13:17;21.70;;;16.30;;
83326;SDS011;73250;55.594;13.020;2024-03-22T08:15:43;24.75;;;19.90;;
83326;SDS011;73250;55.594;13.020;2024-03-22T08:18:11;27.98;;;20.58;;
83326;SDS011;73250;55.594;13.020;2024-03-22T08:20:38;29.70;;;23.58;;
83326;SDS011;73250;55.594;13.020;2024-03-22T08:23:05;25.02;;;20.70;;
83326;SDS011;73250;55.594;13.020;2024-03-22T08:25:32;30.13;;;24.30;;
83326;SDS011;73250;55.594;13.020;2024-03-22T08:27:58;39.97;;;29.65;;
83326;SDS011;73250;55.594;13.020;2024-03-22T08:30:25;30.50;;;24.33;;
83326;SDS011;73250;55.594;13.020;2024-03-22T08:32:51;30.63;;;24.10;;
83326;SDS011;73250;55.594;13.020;2024-03-22T08:35:17;30.67;;;25.05;;
83326;SDS011;73250;55.594;13.020;2024-03-22T08:37:43;37.97;;;30.35;;
83326;SDS011;73250;55.594;13.020;2024-03-22T08:40:12;39.10;;;29.45;;
83326;SDS011;73250;55.594;13.020;2024-03-22T08:42:38;53.33;;;42.05;;
83326;SDS011;73250;55.594;13.020;2024-03-22T08:45:07;41.45;;;34.15;;
83326;SDS011;73250;55.594;13.020;2024-03-22T08:47:34;45.10;;;34.88;;
83326;SDS011;73250;55.594;13.020;2024-03-22T08:50:00;41.83;;;35.15;;
83326;SDS011;73250;55.594;13.020;2024-03-22T08:52:26;43.92;;;34.95;;
83326;SDS011;73250;55.594;13.020;2024-03-22T08:54:53;42.42;;;33.20;;
83326;SDS011;73250;55.594;13.020;2024-03-22T08:57:20;56.03;;;42.97;;
83326;SDS011;73250;55.594;13.020;2024-03-22T08:59:47;51.30;;;39.13;;
83326;SDS011;73250;55.594;13.020;2024-03-22T09:02:13;55.00;;;44.45;;
83326;SDS011;73250;55.594;13.020;2024-03-22T09:04:39;35.92;;;29.95;;
83326;SDS011;73250;55.594;13.020;2024-03-22T09:07:06;57.42;;;44.67;;
83326;SDS011;73250;55.594;13.020;2024-03-22T09:09:33;56.30;;;44.67;;
83326;SDS011;73250;55.594;13.020;2024-03-22T09:11:59;51.40;;;43.88;;
83326;SDS011;73250;55.594;13.020;2024-03-22T09:14:27;61.85;;;48.05;;
83326;SDS011;73250;55.594;13.020;2024-03-22T09:16:53;49.58;;;40.72;;
83326;SDS011;73250;55.594;13.020;2024-03-22T09:19:19;43.97;;;36.60;;
83326;SDS011;73250;55.594;13.020;2024-03-22T09:21:45;56.30;;;44.20;;
83326;SDS011;73250;55.594;13.020;2024-03-22T09:24:11;64.10;;;50.55;;
83326;SDS011;73250;55.594;13.020;2024-03-22T09:26:37;59.38;;;47.08;;
83326;SDS011;73250;55.594;13.020;2024-03-22T09:29:04;49.38;;;39.92;;
83326;SDS011;73250;55.594;13.020;2024-03-22T09:31:31;43.15;;;35.38;;
83326;SDS011;73250;55.594;13.020;2024-03-22T09:33:58;58.60;;;46.33;;
83326;SDS011;73250;55.594;13.020;2024-03-22T09:36:24;52.10;;;39.13;;
83326;SDS011;73250;55.594;13.020;2024-03-22T09:38:50;50.97;;;38.53;;
83326;SDS011;73250;55.594;13.020;2024-03-22T09:41:17;48.15;;;37.97;;
83326;SDS011;73250;55.594;13.020;2024-03-22T09:43:48;44.75;;;37.33;;
83326;SDS011;73250;55.594;13.020;2024-03-22T09:46:16;54.63;;;41.92;;
83326;SDS011;73250;55.594;13.020;2024-03-22T09:48:46;52.75;;;41.00;;
83326;SDS011;73250;55.594;13.020;2024-03-22T09:51:13;47.10;;;38.60;;
83326;SDS011;73250;55.594;13.020;2024-03-22T09:53:42;47.05;;;38.88;;
83326;SDS011;73250;55.594;13.020;2024-03-22T09:56:09;43.25;;;35.28;;
83326;SDS011;73250;55.594;13.020;2024-03-22T09:58:40;57.42;;;45.70;;
83326;SDS011;73250;55.594;13.020;2024-03-22T10:01:06;54.13;;;41.70;;
83326;SDS011;73250;55.594;13.020;2024-03-22T10:03:32;48.88;;;38.13;;
83326;SDS011;73250;55.594;13.020;2024-03-22T10:06:00;46.63;;;38.50;;
83326;SDS011;73250;55.594;13.020;2024-03-22T10:08:26;61.53;;;47.58;;
83326;SDS011;73250;55.594;13.020;2024-03-22T10:10:52;55.72;;;42.97;;
83326;SDS011;73250;55.594;13.020;2024-03-22T10:13:19;51.25;;;39.95;;
83326;SDS011;73250;55.594;13.020;2024-03-22T10:15:45;48.95;;;39.35;;
83326;SDS011;73250;55.594;13.020;2024-03-22T10:18:12;48.55;;;40.00;;
83326;SDS011;73250;55.594;13.020;2024-03-22T10:20:39;53.22;;;40.92;;
83326;SDS011;73250;55.594;13.020;2024-03-22T10:23:08;64.32;;;46.15;;
83326;SDS011;73250;55.594;13.020;2024-03-22T10:25:34;53.67;;;42.00;;
83326;SDS011;73250;55.594;13.020;2024-03-22T10:28:01;47.28;;;38.33;;
83326;SDS011;73250;55.594;13.020;2024-03-22T10:30:26;61.25;;;46.83;;
83326;SDS011;73250;55.594;13.020;2024-03-22T10:32:55;60.83;;;49.00;;
83326;SDS011;73250;55.594;13.020;2024-03-22T10:35:21;52.95;;;43.95;;
83326;SDS011;73250;55.594;13.020;2024-03-22T10:37:49;52.90;;;41.78;;
83326;SDS011;73250;55.594;13.020;2024-03-22T10:40:16;66.65;;;51.80;;
83326;SDS011;73250;55.594;13.020;2024-03-22T10:42:43;61.78;;;45.85;;
83326;SDS011;73250;55.594;13.020;2024-03-22T10:45:10;53.58;;;43.83;;
83326;SDS011;73250;55.594;13.020;2024-03-22T10:47:38;52.40;;;42.13;;
83326;SDS011;73250;55.594;13.020;2024-03-22T10:50:05;57.20;;;45.90;;
83326;SDS011;73250;55.594;13.020;2024-03-22T10:52:34;49.33;;;40.90;;
83326;SDS011;73250;55.594;13.020;2024-03-22T10:55:03;53.13;;;42.22;;
83326;SDS011;73250;55.594;13.020;2024-03-22T10:57:34;46.92;;;39.55;;
83326;SDS011;73250;55.594;13.020;2024-03-22T11:00:02;52.55;;;43.15;;
83326;SDS011;73250;55.594;13.020;2024-03-22T11:02:35;75.57;;;61.92;;
83326;SDS011;73250;55.594;13.020;2024-03-22T11:05:00;70.63;;;56.42;;
83326;SDS011;73250;55.594;13.020;2024-03-22T11:07:28;67.88;;;52.92;;
83326;SDS011;73250;55.594;13.020;2024-03-22T11:09:55;70.60;;;54.72;;
83326;SDS011;73250;55.594;13.020;2024-03-22T11:12:24;67.63;;;52.40;;
83326;SDS011;73250;55.594;13.020;2024-03-22T11:14:51;60.92;;;49.72;;
83326;SDS011;73250;55.594;13.020;2024-03-22T11:17:18;58.60;;;48.53;;
83326;SDS011;73250;55.594;13.020;2024-03-22T11:19:44;51.35;;;43.00;;
83326;SDS011;73250;55.594;13.020;2024-03-22T11:22:11;54.55;;;45.38;;
83326;SDS011;73250;55.594;13.020;2024-03-22T11:24:38;52.58;;;40.05;;
83326;SDS011;73250;55.594;13.020;2024-03-22T11:27:04;51.50;;;42.10;;
83326;SDS011;73250;55.594;13.020;2024-03-22T11:29:30;53.80;;;44.45;;
83326;SDS011;73250;55.594;13.020;2024-03-22T11:31:58;57.22;;;44.20;;
83326;SDS011;73250;55.594;13.020;2024-03-22T11:34:24;56.67;;;45.45;;
83326;SDS011;73250;55.594;13.020;2024-03-22T11:36:51;58.78;;;46.65;;
83326;SDS011;73250;55.594;13.020;2024-03-22T11:39:18;61.33;;;48.65;;
83326;SDS011;73250;55.594;13.020;2024-03-22T11:41:45;68.72;;;54.22;;
83326;SDS011;73250;55.594;13.020;2024-03-22T11:44:14;74.57;;;58.63;;
83326;SDS011;73250;55.594;13.020;2024-03-22T11:46:41;78.65;;;60.67;;
83326;SDS011;73250;55.594;13.020;2024-03-22T11:49:08;65.65;;;51.67;;
83326;SDS011;73250;55.594;13.020;2024-03-22T11:51:35;73.10;;;59.47;;
83326;SDS011;73250;55.594;13.020;2024-03-22T11:54:00;84.43;;;63.47;;
83326;SDS011;73250;55.594;13.020;2024-03-22T11:56:34;72.43;;;53.67;;
83326;SDS011;73250;55.594;13.020;2024-03-22T11:59:00;61.05;;;48.13;;
83326;SDS011;73250;55.594;13.020;2024-03-22T12:01:28;62.13;;;48.28;;
83326;SDS011;73250;55.594;13.020;2024-03-22T12:03:54;55.70;;;46.47;;
83326;SDS011;73250;55.594;13.020;2024-03-22T12:06:22;62.78;;;51.25;;
83326;SDS011;73250;55.594;13.020;2024-03-22T12:08:48;64.95;;;50.25;;
83326;SDS011;73250;55.594;13.020;2024-03-22T12:11:17;59.10;;;48.63;;
83326;SDS011;73250;55.594;13.020;2024-03-22T12:13:43;57.25;;;45.83;;
83326;SDS011;73250;55.594;13.020;2024-03-22T12:16:10;57.72;;;48.92;;
83326;SDS011;73250;55.594;13.020;2024-03-22T12:18:35;59.90;;;44.95;;
83326;SDS011;73250;55.594;13.020;2024-03-22T12:21:02;69.90;;;55.15;;
83326;SDS011;73250;55.594;13.020;2024-03-22T12:23:29;70.70;;;52.83;;
83326;SDS011;73250;55.594;13.020;2024-03-22T12:25:56;59.30;;;42.97;;
83326;SDS011;73250;55.594;13.020;2024-03-22T12:28:22;72.22;;;50.75;;
83326;SDS011;73250;55.594;13.020;2024-03-22T12:30:48;65.22;;;48.17;;
83326;SDS011;73250;55.594;13.020;2024-03-22T12:33:14;79.28;;;56.45;;
83326;SDS011;73250;55.594;13.020;2024-03-22T12:35:41;66.55;;;47.22;;
83326;SDS011;73250;55.594;13.020;2024-03-22T12:38:07;68.28;;;48.75;;
83326;SDS011;73250;55.594;13.020;2024-03-22T12:40:37;59.75;;;44.58;;
83326;SDS011;73250;55.594;13.020;2024-03-22T12:43:03;56.15;;;42.80;;
83326;SDS011;73250;55.594;13.020;2024-03-22T12:45:30;58.65;;;45.08;;
83326;SDS011;73250;55.594;13.020;2024-03-22T12:47:57;77.40;;;53.65;;
83326;SDS011;73250;55.594;13.020;2024-03-22T12:50:24;78.97;;;59.20;;
83326;SDS011;73250;55.594;13.020;2024-03-22T12:52:49;72.93;;;54.67;;
83326;SDS011;73250;55.594;13.020;2024-03-22T12:55:16;65.63;;;49.60;;
83326;SDS011;73250;55.594;13.020;2024-03-22T12:57:43;57.47;;;44.65;;
83326;SDS011;73250;55.594;13.020;2024-03-22T13:00:09;62.67;;;47.25;;
83326;SDS011;73250;55.594;13.020;2024-03-22T13:02:39;58.53;;;45.92;;
83326;SDS011;73250;55.594;13.020;2024-03-22T13:05:06;238.70;;;140.25;;
83326;SDS011;73250;55.594;13.020;2024-03-22T13:07:33;155.00;;;92.38;;
83326;SDS011;73250;55.594;13.020;2024-03-22T13:09:59;80.00;;;59.25;;
83326;SDS011;73250;55.594;13.020;2024-03-22T13:12:26;82.63;;;58.08;;
83326;SDS011;73250;55.594;13.020;2024-03-22T13:14:54;71.90;;;53.70;;
83326;SDS011;73250;55.594;13.020;2024-03-22T13:17:21;62.75;;;49.13;;
83326;SDS011;73250;55.594;13.020;2024-03-22T13:19:47;56.30;;;46.00;;
83326;SDS011;73250;55.594;13.020;2024-03-22T13:22:14;56.60;;;45.03;;
83326;SDS011;73250;55.594;13.020;2024-03-22T13:24:43;67.60;;;52.42;;
83326;SDS011;73250;55.594;13.020;2024-03-22T13:27:09;54.70;;;41.90;;
83326;SDS011;73250;55.594;13.020;2024-03-22T13:29:35;661.58;;;331.30;;
83326;SDS011;73250;55.594;13.020;2024-03-22T13:32:03;75.88;;;50.63;;
83326;SDS011;73250;55.594;13.020;2024-03-22T13:34:30;88.78;;;59.00;;
83326;SDS011;73250;55.594;13.020;2024-03-22T13:36:58;86.55;;;61.88;;
83326;SDS011;73250;55.594;13.020;2024-03-22T13:39:23;58.70;;;44.65;;
83326;SDS011;73250;55.594;13.020;2024-03-22T13:41:50;87.90;;;61.30;;
83326;SDS011;73250;55.594;13.020;2024-03-22T13:44:18;75.45;;;52.30;;
83326;SDS011;73250;55.594;13.020;2024-03-22T13:46:44;93.75;;;65.00;;
83326;SDS011;73250;55.594;13.020;2024-03-22T13:49:14;76.72;;;56.15;;
83326;SDS011;73250;55.594;13.020;2024-03-22T13:51:45;76.07;;;55.78;;
83326;SDS011;73250;55.594;13.020;2024-03-22T13:54:11;83.82;;;51.97;;
83326;SDS011;73250;55.594;13.020;2024-03-22T13:56:38;65.10;;;48.30;;
83326;SDS011;73250;55.594;13.020;2024-03-22T13:59:03;81.88;;;52.92;;
83326;SDS011;73250;55.594;13.020;2024-03-22T14:01:31;118.10;;;66.35;;
83326;SDS011;73250;55.594;13.020;2024-03-22T14:03:57;107.40;;;60.70;;
83326;SDS011;73250;55.594;13.020;2024-03-22T14:06:25;82.45;;;50.88;;
83326;SDS011;73250;55.594;13.020;2024-03-22T14:08:50;85.35;;;55.58;;
83326;SDS011;73250;55.594;13.020;2024-03-22T14:11:19;74.40;;;50.30;;
83326;SDS011;73250;55.594;13.020;2024-03-22T14:13:44;68.32;;;43.88;;
83326;SDS011;73250;55.594;13.020;2024-03-22T14:16:11;86.78;;;56.40;;
83326;SDS011;73250;55.594;13.020;2024-03-22T14:18:37;83.28;;;56.97;;
83326;SDS011;73250;55.594;13.020;2024-03-22T14:21:03;85.90;;;63.17;;